Lawton, Kentucky
Current Conditions -  °F | °C
As of 3:50 AM on Sunday 23 Nov 2014 (Local Time) from KSYM Reporting Station
Overcast Overcast  
Wind Chill: 52°   Ceiling: 4300
Heat Index: 52°   Visibility: 10mi
Dew Point: 34°   Wind: 5mph
Humidity: 50%   Direction: 160°SSE
Pressure: 30.09"   Gusts: NA
Location:  38.3543°N, 83.1837°W
Report Text: KSYM 230850Z AUTO 16004KT 10SM SCT036 BKN043 OVC090 11/01 A3009 RMK AO2
Loading
Personal Weather Stations






























Interactive Weather Map New forecast layout! Learn more

10-Day Weather Forecast

Advertisements
Track Severe Weather on mobile